createdAt,value
2017-02-13T00:00:09.242Z,926.81
2017-02-13T00:00:37.327Z,926.79
2017-02-13T00:01:05.559Z,926.81
2017-02-13T00:01:33.671Z,926.8
2017-02-13T00:02:01.749Z,926.83
2017-02-13T00:02:29.964Z,926.81
2017-02-13T00:02:57.903Z,926.85
2017-02-13T00:03:25.958Z,926.87
2017-02-13T00:03:54.162Z,926.82
2017-02-13T00:04:22.196Z,926.87
2017-02-13T00:04:50.209Z,926.82
2017-02-13T00:05:18.489Z,926.85
2017-02-13T00:05:46.596Z,926.88
2017-02-13T00:06:14.702Z,926.86
2017-02-13T00:06:42.937Z,926.88
2017-02-13T00:07:11.226Z,926.89
2017-02-13T00:07:39.443Z,926.89
2017-02-13T00:08:07.652Z,926.86
2017-02-13T00:08:35.701Z,926.88
2017-02-13T00:09:03.859Z,926.91
2017-02-13T00:09:31.974Z,926.9
2017-02-13T00:10:00.073Z,926.9
2017-02-13T00:10:28.095Z,926.91
2017-02-13T00:10:56.274Z,926.89
2017-02-13T00:11:24.295Z,926.9
2017-02-13T00:11:52.484Z,926.9
2017-02-13T00:12:20.742Z,926.92
2017-02-13T00:12:48.711Z,926.94
2017-02-13T00:13:16.738Z,926.91
2017-02-13T00:13:44.935Z,926.94
2017-02-13T00:14:13.100Z,926.95
2017-02-13T00:14:41.216Z,926.92
2017-02-13T00:15:09.345Z,926.96
2017-02-13T00:15:37.566Z,926.94
2017-02-13T00:16:05.419Z,926.93
2017-02-13T00:16:33.408Z,926.95
2017-02-13T00:17:01.530Z,926.93
2017-02-13T00:17:29.958Z,926.97
2017-02-13T00:17:57.982Z,926.94
2017-02-13T00:18:25.975Z,926.92
2017-02-13T00:18:54.101Z,926.93
2017-02-13T00:19:22.222Z,926.94
2017-02-13T00:19:50.314Z,926.91
2017-02-13T00:20:18.422Z,926.9
2017-02-13T00:20:46.588Z,926.92
2017-02-13T00:21:14.717Z,926.94
2017-02-13T00:21:42.798Z,926.94
2017-02-13T00:22:10.794Z,926.96
2017-02-13T00:22:39.035Z,926.94
2017-02-13T00:23:07.271Z,926.94
2017-02-13T00:23:35.389Z,926.93
2017-02-13T00:24:03.631Z,926.94
2017-02-13T00:24:31.565Z,926.94
2017-02-13T00:24:59.582Z,926.94
2017-02-13T00:25:27.702Z,926.96
2017-02-13T00:25:55.824Z,926.94
2017-02-13T00:26:24.031Z,926.93
2017-02-13T00:26:51.954Z,926.92
2017-02-13T00:27:20.137Z,926.93
2017-02-13T00:27:48.328Z,926.92
2017-02-13T00:28:16.290Z,926.99
2017-02-13T00:28:44.491Z,926.95
2017-02-13T00:29:12.631Z,926.96
2017-02-13T00:29:40.737Z,926.97
2017-02-13T00:30:08.732Z,926.96
2017-02-13T00:30:36.895Z,926.95
2017-02-13T00:31:05.005Z,926.97
2017-02-13T00:31:33.169Z,926.98
2017-02-13T00:32:01.354Z,926.96
2017-02-13T00:32:29.658Z,926.96
2017-02-13T00:32:57.703Z,926.97
2017-02-13T00:33:25.916Z,926.98
2017-02-13T00:33:53.982Z,926.97
2017-02-13T00:34:22.163Z,927
2017-02-13T00:34:50.300Z,927
2017-02-13T00:35:18.460Z,926.99
2017-02-13T00:35:46.647Z,926.98
2017-02-13T00:36:14.818Z,927
2017-02-13T00:36:42.996Z,926.98
2017-02-13T00:37:11.227Z,927
2017-02-13T00:37:39.555Z,926.98
2017-02-13T00:38:07.815Z,926.97
2017-02-13T00:38:35.717Z,926.98
2017-02-13T00:39:03.671Z,926.94
2017-02-13T00:39:31.831Z,926.97
2017-02-13T00:39:59.940Z,926.97
2017-02-13T00:40:28.286Z,926.95
2017-02-13T00:40:56.412Z,926.96
2017-02-13T00:41:24.526Z,926.98
2017-02-13T00:41:52.739Z,926.97
2017-02-13T00:42:20.956Z,926.99
2017-02-13T00:42:49.256Z,926.97
2017-02-13T00:43:17.274Z,927.02
2017-02-13T00:43:45.300Z,926.97
2017-02-13T00:44:13.286Z,926.98
2017-02-13T00:44:41.301Z,927
2017-02-13T00:45:09.329Z,926.98
2017-02-13T00:45:37.250Z,927
2017-02-13T00:46:05.098Z,927
2017-02-13T00:46:33.287Z,927
2017-02-13T00:47:01.407Z,927
2017-02-13T00:47:29.537Z,927.01
2017-02-13T00:47:57.887Z,926.97
2017-02-13T00:48:25.957Z,927.01
2017-02-13T00:48:53.909Z,926.99
2017-02-13T00:49:22.020Z,926.98
2017-02-13T00:49:50.102Z,927.01
2017-02-13T00:50:18.360Z,926.99
2017-02-13T00:50:46.536Z,926.98
2017-02-13T00:51:14.628Z,926.99
2017-02-13T00:51:42.771Z,927.01
2017-02-13T00:52:10.901Z,926.97
2017-02-13T00:52:39.144Z,926.99
2017-02-13T00:53:07.653Z,926.98
2017-02-13T00:53:35.907Z,927.02
2017-02-13T00:54:04.023Z,927
2017-02-13T00:54:32.054Z,926.98
2017-02-13T00:55:00.043Z,926.99
2017-02-13T00:55:28.124Z,926.99
2017-02-13T00:55:56.253Z,927
2017-02-13T00:56:24.274Z,926.97
2017-02-13T00:56:52.452Z,927.01
2017-02-13T00:57:20.541Z,927.01
2017-02-13T00:57:48.817Z,926.99
2017-02-13T00:58:17.019Z,927.01
2017-02-13T00:58:45.126Z,927
2017-02-13T00:59:13.302Z,927.01
2017-02-13T00:59:41.402Z,927
2017-02-13T01:00:09.505Z,926.97
2017-02-13T01:00:37.644Z,926.99
2017-02-13T01:01:05.874Z,926.99
2017-02-13T01:01:33.992Z,927.03
2017-02-13T01:02:02.110Z,927
2017-02-13T01:02:30.216Z,927.02
2017-02-13T01:02:58.578Z,927.02
2017-02-13T01:03:26.751Z,927
2017-02-13T01:03:54.999Z,927
2017-02-13T01:04:23.248Z,926.98
2017-02-13T01:04:51.286Z,927.04
2017-02-13T01:05:19.388Z,927.01
2017-02-13T01:05:47.526Z,927
2017-02-13T01:06:15.683Z,927
2017-02-13T01:06:43.837Z,927.03
2017-02-13T01:07:11.987Z,926.99
2017-02-13T01:07:40.042Z,927
2017-02-13T01:08:08.394Z,927.02
2017-02-13T01:08:36.615Z,926.99
2017-02-13T01:09:04.720Z,926.96
2017-02-13T01:09:32.708Z,926.97
2017-02-13T01:10:00.809Z,926.99
2017-02-13T01:10:28.989Z,926.98
2017-02-13T01:10:57.194Z,926.97
2017-02-13T01:11:25.304Z,926.98
2017-02-13T01:11:53.384Z,926.97
2017-02-13T01:12:21.378Z,926.98
2017-02-13T01:12:49.415Z,926.99
2017-02-13T01:13:17.692Z,926.97
2017-02-13T01:13:45.875Z,927
2017-02-13T01:14:14.053Z,926.97
2017-02-13T01:14:42.272Z,926.99
2017-02-13T01:15:10.498Z,926.98
2017-02-13T01:15:38.682Z,926.98
2017-02-13T01:16:06.844Z,926.97
2017-02-13T01:16:34.942Z,927
2017-02-13T01:17:02.992Z,926.99
2017-02-13T01:17:31.078Z,926.99
2017-02-13T01:17:59.448Z,927
2017-02-13T01:18:27.791Z,927
2017-02-13T01:18:55.943Z,926.99
2017-02-13T01:19:23.944Z,926.97
2017-02-13T01:19:51.897Z,927.01
2017-02-13T01:20:20.018Z,927
2017-02-13T01:20:47.947Z,927.01
2017-02-13T01:21:15.966Z,926.99
2017-02-13T01:21:44.403Z,927.02
2017-02-13T01:22:12.530Z,927.02
2017-02-13T01:22:40.762Z,927.05
2017-02-13T01:23:08.843Z,927.06
2017-02-13T01:23:37.036Z,927.05
2017-02-13T01:24:05.153Z,927.07
2017-02-13T01:24:33.181Z,927.08
2017-02-13T01:25:01.362Z,927.1
2017-02-13T01:25:29.577Z,927.1
2017-02-13T01:25:57.653Z,927.12
2017-02-13T01:26:25.840Z,927.1
2017-02-13T01:26:53.885Z,927.12
2017-02-13T01:27:21.885Z,927.13
2017-02-13T01:27:50.007Z,927.08
2017-02-13T01:28:18.106Z,927.08
2017-02-13T01:28:46.258Z,927.11
2017-02-13T01:29:14.304Z,927.09
2017-02-13T01:29:42.315Z,927.1
2017-02-13T01:30:10.323Z,927.1
2017-02-13T01:30:38.269Z,927.09
2017-02-13T01:31:06.370Z,927.11
2017-02-13T01:31:34.405Z,927.09
2017-02-13T01:32:02.540Z,927.1
2017-02-13T01:32:30.562Z,927.14
2017-02-13T01:32:58.411Z,927.12
2017-02-13T01:33:26.748Z,927.12
2017-02-13T01:33:54.849Z,927.09
2017-02-13T01:34:23.041Z,927.1
2017-02-13T01:34:51.085Z,927.11
2017-02-13T01:35:19.238Z,927.1
2017-02-13T01:35:47.469Z,927.09
2017-02-13T01:36:15.717Z,927.07
2017-02-13T01:36:43.880Z,927.1
2017-02-13T01:37:11.984Z,927.1
2017-02-13T01:37:40.153Z,927.09
2017-02-13T01:38:08.149Z,927.09
2017-02-13T01:38:36.550Z,927.11
2017-02-13T01:39:04.518Z,927.11
2017-02-13T01:39:32.765Z,927.11
2017-02-13T01:40:00.962Z,927.09
2017-02-13T01:40:29.033Z,927.1
2017-02-13T01:40:56.938Z,927.1
2017-02-13T01:41:24.992Z,927.08
2017-02-13T01:41:53.044Z,927.04
2017-02-13T01:42:21.125Z,927.06
2017-02-13T01:42:49.220Z,927.09
2017-02-13T01:43:17.291Z,927.08
2017-02-13T01:43:45.623Z,927.04
2017-02-13T01:44:13.790Z,927.03
2017-02-13T01:44:41.971Z,927.05
2017-02-13T01:45:10.122Z,927.06
2017-02-13T01:45:38.217Z,927.08
2017-02-13T01:46:06.451Z,927.04
2017-02-13T01:46:34.562Z,927.06
2017-02-13T01:47:02.717Z,927.07
2017-02-13T01:47:30.823Z,927.04
2017-02-13T01:47:58.969Z,927.08
2017-02-13T01:48:27.324Z,927.08
2017-02-13T01:48:55.316Z,927.09
2017-02-13T01:49:23.392Z,927.09
2017-02-13T01:49:51.473Z,927.11
2017-02-13T01:50:19.591Z,927.11
2017-02-13T01:50:47.667Z,927.11
2017-02-13T01:51:15.733Z,927.07
2017-02-13T01:51:43.831Z,927.06
2017-02-13T01:52:11.666Z,927.07
2017-02-13T01:52:39.878Z,927.08
2017-02-13T01:53:08.041Z,927.1
2017-02-13T01:53:36.191Z,927.1
2017-02-13T01:54:04.301Z,927.06
2017-02-13T01:54:32.505Z,927.07
2017-02-13T01:55:00.487Z,927.07
2017-02-13T01:55:28.604Z,927.09
2017-02-13T01:55:56.715Z,927.1
2017-02-13T01:56:24.804Z,927.14
2017-02-13T01:56:52.939Z,927.12
2017-02-13T01:57:21.053Z,927.15
2017-02-13T01:57:49.220Z,927.14
2017-02-13T01:58:17.462Z,927.15
2017-02-13T01:58:45.797Z,927.16
2017-02-13T01:59:13.817Z,927.12
2017-02-13T01:59:41.942Z,927.18
2017-02-13T02:00:10.033Z,927.21
2017-02-13T02:00:38.214Z,927.16
2017-02-13T02:01:06.209Z,927.16
2017-02-13T02:01:34.310Z,927.21
2017-02-13T02:02:02.337Z,927.19
2017-02-13T02:02:30.287Z,927.2
2017-02-13T02:02:58.444Z,927.21
2017-02-13T02:03:26.408Z,927.22
2017-02-13T02:03:54.604Z,927.25
2017-02-13T02:04:22.739Z,927.23
2017-02-13T02:04:50.926Z,927.22
2017-02-13T02:05:19.086Z,927.23
2017-02-13T02:05:47.272Z,927.26
2017-02-13T02:06:15.430Z,927.22
2017-02-13T02:06:43.542Z,927.21
2017-02-13T02:07:11.601Z,927.24
2017-02-13T02:07:39.620Z,927.21
2017-02-13T02:08:07.725Z,927.23
2017-02-13T02:08:35.828Z,927.24
2017-02-13T02:09:04.016Z,927.23
2017-02-13T02:09:32.159Z,927.23
2017-02-13T02:10:00.168Z,927.22
2017-02-13T02:10:28.228Z,927.23
2017-02-13T02:10:56.280Z,927.2
2017-02-13T02:11:24.256Z,927.21
2017-02-13T02:11:52.429Z,927.15
2017-02-13T02:12:20.491Z,927.2
2017-02-13T02:12:48.590Z,927.18
2017-02-13T02:13:16.580Z,927.17
2017-02-13T02:13:44.949Z,927.15
2017-02-13T02:14:13.176Z,927.18
2017-02-13T02:14:41.199Z,927.21
2017-02-13T02:15:09.192Z,927.2
2017-02-13T02:15:37.289Z,927.23
2017-02-13T02:16:05.439Z,927.2
2017-02-13T02:16:33.508Z,927.18
2017-02-13T02:17:01.774Z,927.19
2017-02-13T02:17:29.820Z,927.2
2017-02-13T02:17:57.936Z,927.18
2017-02-13T02:18:26.024Z,927.19
2017-02-13T02:18:54.070Z,927.17
2017-02-13T02:19:22.231Z,927.17
2017-02-13T02:19:50.229Z,927.15
2017-02-13T02:20:18.228Z,927.17
2017-02-13T02:20:46.414Z,927.14
2017-02-13T02:21:14.451Z,927.15
2017-02-13T02:21:42.586Z,927.17
2017-02-13T02:22:10.755Z,927.17
2017-02-13T02:22:38.994Z,927.16
2017-02-13T02:23:07.197Z,927.17
2017-02-13T02:23:35.265Z,927.17
2017-02-13T02:24:03.523Z,927.19
2017-02-13T02:24:31.642Z,927.17
2017-02-13T02:24:59.806Z,927.2
2017-02-13T02:25:27.804Z,927.18
2017-02-13T02:25:56.046Z,927.17
2017-02-13T02:26:24.185Z,927.2
2017-02-13T02:26:52.147Z,927.18
2017-02-13T02:27:20.370Z,927.2
2017-02-13T02:27:48.305Z,927.22
2017-02-13T02:28:16.410Z,927.17
2017-02-13T02:28:44.892Z,927.16
2017-02-13T02:29:12.894Z,927.22
2017-02-13T02:29:41.067Z,927.2
2017-02-13T02:30:09.228Z,927.18
2017-02-13T02:30:37.378Z,927.22
2017-02-13T02:31:05.482Z,927.21
2017-02-13T02:31:33.441Z,927.23
2017-02-13T02:32:01.675Z,927.2
2017-02-13T02:32:29.739Z,927.21
2017-02-13T02:32:57.671Z,927.21
2017-02-13T02:33:25.785Z,927.21
2017-02-13T02:33:53.910Z,927.2
2017-02-13T02:34:21.958Z,927.17
2017-02-13T02:34:50.158Z,927.19
2017-02-13T02:35:18.142Z,927.19
2017-02-13T02:35:46.195Z,927.25
2017-02-13T02:36:14.284Z,927.21
2017-02-13T02:36:42.373Z,927.17
2017-02-13T02:37:10.411Z,927.2
2017-02-13T02:37:38.496Z,927.19
2017-02-13T02:38:06.686Z,927.23
2017-02-13T02:38:34.775Z,927.22
2017-02-13T02:39:03.086Z,927.19
2017-02-13T02:39:31.288Z,927.21
2017-02-13T02:39:59.215Z,927.2
2017-02-13T02:40:27.351Z,927.24
2017-02-13T02:40:55.350Z,927.18
2017-02-13T02:41:23.487Z,927.19
2017-02-13T02:41:51.708Z,927.25
2017-02-13T02:42:19.717Z,927.2
2017-02-13T02:42:47.796Z,927.26
2017-02-13T02:43:15.908Z,927.18
2017-02-13T02:43:44.030Z,927.25
2017-02-13T02:44:12.348Z,927.28
2017-02-13T02:44:40.577Z,927.16
2017-02-13T02:45:08.785Z,927.2
2017-02-13T02:45:36.899Z,927.24
2017-02-13T02:46:05.012Z,927.23
2017-02-13T02:46:33.032Z,927.24
2017-02-13T02:47:01.137Z,927.25
2017-02-13T02:47:29.256Z,927.25
2017-02-13T02:47:57.267Z,927.24
2017-02-13T02:48:25.354Z,927.26
2017-02-13T02:48:53.513Z,927.25
2017-02-13T02:49:21.695Z,927.25
2017-02-13T02:49:49.794Z,927.24
2017-02-13T02:50:17.911Z,927.24
2017-02-13T02:50:46.096Z,927.2
2017-02-13T02:51:14.169Z,927.21
2017-02-13T02:51:42.190Z,927.18
2017-02-13T02:52:10.312Z,927.22
2017-02-13T02:52:38.302Z,927.19
2017-02-13T02:53:06.445Z,927.21
2017-02-13T02:53:34.586Z,927.16
2017-02-13T02:54:02.765Z,927.18
2017-02-13T02:54:31.010Z,927.2
2017-02-13T02:54:59.221Z,927.15
2017-02-13T02:55:27.371Z,927.12
2017-02-13T02:55:55.564Z,927.18
2017-02-13T02:56:23.649Z,927.17
2017-02-13T02:56:51.664Z,927.16
2017-02-13T02:57:19.701Z,927.16
2017-02-13T02:57:47.939Z,927.15
2017-02-13T02:58:16.169Z,927.17
2017-02-13T02:58:44.381Z,927.19
2017-02-13T02:59:12.755Z,927.19
2017-02-13T02:59:40.799Z,927.2
2017-02-13T03:00:09.019Z,927.22
2017-02-13T03:00:36.877Z,927.25
2017-02-13T03:01:04.871Z,927.23
2017-02-13T03:01:32.978Z,927.27
2017-02-13T03:02:00.913Z,927.29
2017-02-13T03:02:28.968Z,927.3
2017-02-13T03:02:57.194Z,927.26
2017-02-13T03:03:25.335Z,927.23
2017-02-13T03:03:53.532Z,927.21
2017-02-13T03:04:21.707Z,927.23
2017-02-13T03:04:49.841Z,927.25
2017-02-13T03:05:17.994Z,927.19
2017-02-13T03:05:46.249Z,927.21
2017-02-13T03:06:14.216Z,927.23
2017-02-13T03:06:42.416Z,927.23
2017-02-13T03:07:10.530Z,927.21
2017-02-13T03:07:38.672Z,927.22
2017-02-13T03:08:06.888Z,927.21
2017-02-13T03:08:35.020Z,927.21
2017-02-13T03:09:03.111Z,927.24
2017-02-13T03:09:31.302Z,927.24
2017-02-13T03:09:59.412Z,927.23
2017-02-13T03:10:27.567Z,927.2
2017-02-13T03:10:55.552Z,927.24
2017-02-13T03:11:23.721Z,927.23
2017-02-13T03:11:51.905Z,927.29
2017-02-13T03:12:19.946Z,927.26
2017-02-13T03:12:48.106Z,927.26
2017-02-13T03:13:16.319Z,927.24
2017-02-13T03:13:44.341Z,927.26
2017-02-13T03:14:12.371Z,927.29
2017-02-13T03:14:40.584Z,927.31
2017-02-13T03:15:08.567Z,927.27
2017-02-13T03:15:36.592Z,927.28
2017-02-13T03:16:04.701Z,927.27
2017-02-13T03:16:32.904Z,927.29
2017-02-13T03:17:01.001Z,927.28
2017-02-13T03:17:28.996Z,927.27
2017-02-13T03:17:57.182Z,927.3
2017-02-13T03:18:25.245Z,927.32
2017-02-13T03:18:53.429Z,927.29
2017-02-13T03:19:21.511Z,927.29
2017-02-13T03:19:49.621Z,927.26
2017-02-13T03:20:17.734Z,927.27
2017-02-13T03:20:45.827Z,927.27
2017-02-13T03:21:14.026Z,927.23
2017-02-13T03:21:42.067Z,927.24
2017-02-13T03:22:10.166Z,927.29
2017-02-13T03:22:38.205Z,927.28
2017-02-13T03:23:06.454Z,927.28
2017-02-13T03:23:34.706Z,927.29
2017-02-13T03:24:02.919Z,927.29
2017-02-13T03:24:31.234Z,927.2
2017-02-13T03:24:59.401Z,927.26
2017-02-13T03:25:27.493Z,927.28
2017-02-13T03:25:55.437Z,927.29
2017-02-13T03:26:23.604Z,927.24
2017-02-13T03:26:51.803Z,927.28
2017-02-13T03:27:19.916Z,927.28
2017-02-13T03:27:47.996Z,927.27
2017-02-13T03:28:16.042Z,927.3
2017-02-13T03:28:44.241Z,927.28
2017-02-13T03:29:12.294Z,927.28
2017-02-13T03:29:40.610Z,927.27
2017-02-13T03:30:08.660Z,927.27
2017-02-13T03:30:36.656Z,927.21
2017-02-13T03:31:04.787Z,927.22
2017-02-13T03:31:32.917Z,927.23
2017-02-13T03:32:00.980Z,927.21
2017-02-13T03:32:29.006Z,927.23
2017-02-13T03:32:57.256Z,927.22
2017-02-13T03:33:25.347Z,927.21
2017-02-13T03:33:53.271Z,927.25
2017-02-13T03:34:21.498Z,927.24
2017-02-13T03:34:49.838Z,927.22
2017-02-13T03:35:18.037Z,927.22
2017-02-13T03:35:46.192Z,927.23
2017-02-13T03:36:14.265Z,927.25
2017-02-13T03:36:42.390Z,927.22
2017-02-13T03:37:10.454Z,927.26
2017-02-13T03:37:38.448Z,927.24
2017-02-13T03:38:06.650Z,927.23
2017-02-13T03:38:34.756Z,927.24
2017-02-13T03:39:02.867Z,927.23
2017-02-13T03:39:30.982Z,927.25
2017-02-13T03:39:59.221Z,927.2
2017-02-13T03:40:27.350Z,927.22
2017-02-13T03:40:55.465Z,927.23
2017-02-13T03:41:23.595Z,927.28
2017-02-13T03:41:51.606Z,927.23
2017-02-13T03:42:19.793Z,927.24
2017-02-13T03:42:47.867Z,927.24
2017-02-13T03:43:15.727Z,927.25
2017-02-13T03:43:43.847Z,927.26
2017-02-13T03:44:11.945Z,927.25
2017-02-13T03:44:39.877Z,927.26
2017-02-13T03:45:08.011Z,927.28
2017-02-13T03:45:36.187Z,927.25
2017-02-13T03:46:04.257Z,927.26
2017-02-13T03:46:32.375Z,927.25
2017-02-13T03:47:00.496Z,927.25
2017-02-13T03:47:28.594Z,927.25
2017-02-13T03:47:56.720Z,927.21
2017-02-13T03:48:24.923Z,927.24
2017-02-13T03:48:53.094Z,927.25
2017-02-13T03:49:21.241Z,927.27
2017-02-13T03:49:49.546Z,927.24
2017-02-13T03:50:17.673Z,927.27
2017-02-13T03:50:45.884Z,927.25
2017-02-13T03:51:13.990Z,927.24
2017-02-13T03:51:42.153Z,927.24
2017-02-13T03:52:10.361Z,927.25
2017-02-13T03:52:38.500Z,927.23
2017-02-13T03:53:06.630Z,927.3
2017-02-13T03:53:34.719Z,927.28
2017-02-13T03:54:02.732Z,927.28
2017-02-13T03:54:30.832Z,927.26
2017-02-13T03:54:59.067Z,927.25
2017-02-13T03:55:26.961Z,927.27
2017-02-13T03:55:55.014Z,927.29
2017-02-13T03:56:23.054Z,927.25
2017-02-13T03:56:51.254Z,927.26
2017-02-13T03:57:19.382Z,927.3
2017-02-13T03:57:47.331Z,927.26
2017-02-13T03:58:15.365Z,927.24
2017-02-13T03:58:43.478Z,927.26
2017-02-13T03:59:11.529Z,927.28
2017-02-13T03:59:39.500Z,927.26
2017-02-13T04:00:07.544Z,927.28
2017-02-13T04:00:35.652Z,927.27
2017-02-13T04:01:03.669Z,927.29
2017-02-13T04:01:31.806Z,927.33
2017-02-13T04:01:59.806Z,927.31
2017-02-13T04:02:28.020Z,927.28
2017-02-13T04:02:56.179Z,927.3
2017-02-13T04:03:24.360Z,927.31
2017-02-13T04:03:52.424Z,927.32
2017-02-13T04:04:20.494Z,927.32
2017-02-13T04:04:48.418Z,927.31
2017-02-13T04:05:16.660Z,927.29
2017-02-13T04:05:44.696Z,927.3
2017-02-13T04:06:12.690Z,927.32
2017-02-13T04:06:40.908Z,927.28
2017-02-13T04:07:09.018Z,927.27
2017-02-13T04:07:37.128Z,927.24
2017-02-13T04:08:05.247Z,927.26
2017-02-13T04:08:33.365Z,927.24
2017-02-13T04:09:01.422Z,927.26
2017-02-13T04:09:29.380Z,927.21
2017-02-13T04:09:57.405Z,927.23
2017-02-13T04:10:25.599Z,927.19
2017-02-13T04:10:53.607Z,927.21
2017-02-13T04:11:21.534Z,927.18
2017-02-13T04:11:49.652Z,927.19
2017-02-13T04:12:17.869Z,927.17
2017-02-13T04:12:45.929Z,927.16
2017-02-13T04:13:14.130Z,927.17
2017-02-13T04:13:42.109Z,927.18
2017-02-13T04:14:10.154Z,927.16
2017-02-13T04:14:38.326Z,927.13
2017-02-13T04:15:06.685Z,927.13
2017-02-13T04:15:34.795Z,927.11
2017-02-13T04:16:02.902Z,927.1
2017-02-13T04:16:30.999Z,927.11
2017-02-13T04:16:59.146Z,927.07
2017-02-13T04:17:27.206Z,927.1
2017-02-13T04:17:55.301Z,927.09
2017-02-13T04:18:23.484Z,927.07
2017-02-13T04:18:51.669Z,927.08
2017-02-13T04:19:19.703Z,927.07
2017-02-13T04:19:47.822Z,927.03
2017-02-13T04:20:16.027Z,927.02
2017-02-13T04:20:44.235Z,927.02
2017-02-13T04:21:12.258Z,927.01
2017-02-13T04:21:40.282Z,927.02
2017-02-13T04:22:08.422Z,926.98
2017-02-13T04:22:36.426Z,926.98
2017-02-13T04:23:04.623Z,926.98
2017-02-13T04:23:32.537Z,926.95
2017-02-13T04:24:00.563Z,926.96
2017-02-13T04:24:28.577Z,926.97
2017-02-13T04:24:56.819Z,926.95
2017-02-13T04:25:25.008Z,926.97
2017-02-13T04:25:53.149Z,926.95
2017-02-13T04:26:21.266Z,926.94
2017-02-13T04:26:49.442Z,926.93
2017-02-13T04:27:17.644Z,926.96
2017-02-13T04:27:45.730Z,926.94
2017-02-13T04:28:13.884Z,926.97
2017-02-13T04:28:41.913Z,926.98
2017-02-13T04:29:10.080Z,927.01
2017-02-13T04:29:38.213Z,927
2017-02-13T04:30:06.234Z,926.99
2017-02-13T04:30:34.379Z,926.96
2017-02-13T04:31:02.465Z,927.03
2017-02-13T04:31:30.572Z,927.01
2017-02-13T04:31:58.787Z,927.02
2017-02-13T04:32:26.953Z,927.01
2017-02-13T04:32:55.091Z,927.04
2017-02-13T04:33:23.049Z,927.01
2017-02-13T04:33:51.223Z,927.05
2017-02-13T04:34:19.362Z,927.06
2017-02-13T04:34:47.410Z,927.03
2017-02-13T04:35:15.500Z,927.03
2017-02-13T04:35:43.772Z,927.04
2017-02-13T04:36:11.908Z,927.02
2017-02-13T04:36:40.098Z,927.04
2017-02-13T04:37:08.256Z,927.03
2017-02-13T04:37:36.330Z,927.03
2017-02-13T04:38:04.391Z,927.03
2017-02-13T04:38:32.620Z,927.02
2017-02-13T04:39:00.758Z,927.03
2017-02-13T04:39:28.987Z,927.01
2017-02-13T04:39:57.152Z,927
2017-02-13T04:40:25.479Z,927.02
2017-02-13T04:40:53.597Z,927
2017-02-13T04:41:21.721Z,927
2017-02-13T04:41:49.906Z,926.99
2017-02-13T04:42:17.920Z,927
2017-02-13T04:42:46.012Z,926.98
2017-02-13T04:43:14.045Z,926.96
2017-02-13T04:43:42.265Z,926.99
2017-02-13T04:44:10.294Z,926.97
2017-02-13T04:44:38.373Z,926.96
2017-02-13T04:45:06.466Z,926.97
2017-02-13T04:45:34.771Z,926.97
2017-02-13T04:46:02.989Z,926.94
2017-02-13T04:46:31.090Z,926.95
2017-02-13T04:46:59.330Z,926.96
2017-02-13T04:47:27.533Z,926.94
2017-02-13T04:47:55.743Z,926.92
2017-02-13T04:48:23.771Z,926.94
2017-02-13T04:48:51.947Z,926.92
2017-02-13T04:49:20.126Z,926.95
2017-02-13T04:49:48.047Z,926.95
2017-02-13T04:50:16.137Z,926.94
2017-02-13T04:50:44.470Z,926.95
2017-02-13T04:51:12.474Z,926.94
2017-02-13T04:51:40.582Z,926.95
2017-02-13T04:52:08.607Z,926.92
2017-02-13T04:52:36.785Z,926.92
2017-02-13T04:53:04.946Z,926.92
2017-02-13T04:53:33.129Z,926.91
2017-02-13T04:54:01.236Z,926.93
2017-02-13T04:54:29.345Z,926.93
2017-02-13T04:54:57.554Z,926.94
2017-02-13T04:55:25.594Z,926.91
2017-02-13T04:55:53.806Z,926.91
2017-02-13T04:56:21.904Z,926.9
2017-02-13T04:56:50.007Z,926.88
2017-02-13T04:57:18.054Z,926.9
2017-02-13T04:57:46.209Z,926.93
2017-02-13T04:58:14.420Z,926.91
2017-02-13T04:58:42.535Z,926.88
2017-02-13T04:59:10.762Z,926.89
2017-02-13T04:59:38.875Z,926.89
2017-02-13T05:00:07.044Z,926.91
2017-02-13T05:00:35.161Z,926.87
2017-02-13T05:01:03.282Z,926.87
2017-02-13T05:01:31.294Z,926.86
2017-02-13T05:01:59.527Z,926.87
2017-02-13T05:02:27.519Z,926.86
2017-02-13T05:02:55.640Z,926.86
2017-02-13T05:03:23.564Z,926.88
2017-02-13T05:03:51.527Z,926.88
2017-02-13T05:04:19.720Z,926.84
2017-02-13T05:04:47.738Z,926.83
2017-02-13T05:05:15.796Z,926.82
2017-02-13T05:05:44.108Z,926.84
2017-02-13T05:06:12.215Z,926.83
2017-02-13T05:06:40.246Z,926.84
2017-02-13T05:07:08.353Z,926.86
2017-02-13T05:07:36.468Z,926.85
2017-02-13T05:08:04.579Z,926.85
2017-02-13T05:08:32.688Z,926.83
2017-02-13T05:09:00.705Z,926.84
2017-02-13T05:09:28.729Z,926.78
2017-02-13T05:09:56.825Z,926.81
2017-02-13T05:10:25.014Z,926.84
2017-02-13T05:10:53.333Z,926.79
2017-02-13T05:11:21.484Z,926.82
2017-02-13T05:11:49.611Z,926.8
2017-02-13T05:12:17.780Z,926.8
2017-02-13T05:12:45.851Z,926.82
2017-02-13T05:13:13.935Z,926.79
2017-02-13T05:13:42.018Z,926.81
2017-02-13T05:14:10.209Z,926.81
2017-02-13T05:14:38.298Z,926.8
2017-02-13T05:15:06.268Z,926.79
2017-02-13T05:15:34.425Z,926.8
2017-02-13T05:16:02.264Z,926.79
2017-02-13T05:16:30.433Z,926.82
2017-02-13T05:16:58.625Z,926.8
2017-02-13T05:17:26.646Z,926.82
2017-02-13T05:17:54.839Z,926.82
2017-02-13T05:18:22.937Z,926.77
2017-02-13T05:18:50.963Z,926.8
2017-02-13T05:19:19.101Z,926.82
2017-02-13T05:19:47.285Z,926.79
2017-02-13T05:20:15.404Z,926.79
2017-02-13T05:20:43.735Z,926.8
2017-02-13T05:21:11.883Z,926.8
2017-02-13T05:21:40.113Z,926.79
2017-02-13T05:22:08.178Z,926.77
2017-02-13T05:22:36.215Z,926.78
2017-02-13T05:23:04.234Z,926.78
2017-02-13T05:23:32.494Z,926.79
2017-02-13T05:24:00.654Z,926.77
2017-02-13T05:24:28.856Z,926.77
2017-02-13T05:24:56.920Z,926.75
2017-02-13T05:25:25.059Z,926.78
2017-02-13T05:25:53.099Z,926.79
2017-02-13T05:26:21.159Z,926.79
2017-02-13T05:26:49.259Z,926.76
2017-02-13T05:27:17.358Z,926.81
2017-02-13T05:27:45.476Z,926.8
2017-02-13T05:28:13.626Z,926.8
2017-02-13T05:28:41.702Z,926.83
2017-02-13T05:29:09.850Z,926.8
2017-02-13T05:29:37.816Z,926.82
2017-02-13T05:30:05.906Z,926.81
2017-02-13T05:30:34.096Z,926.82
2017-02-13T05:31:02.319Z,926.8
2017-02-13T05:31:30.548Z,926.82
2017-02-13T05:31:58.606Z,926.83
2017-02-13T05:32:26.729Z,926.78
2017-02-13T05:32:54.749Z,926.81
2017-02-13T05:33:22.834Z,926.8
2017-02-13T05:33:50.848Z,926.8
2017-02-13T05:34:19.047Z,926.76
2017-02-13T05:34:47.178Z,926.79
2017-02-13T05:35:15.253Z,926.8
2017-02-13T05:35:43.358Z,926.8
2017-02-13T05:36:11.514Z,926.81
2017-02-13T05:36:39.648Z,926.79
2017-02-13T05:37:07.666Z,926.74
2017-02-13T05:37:35.871Z,926.8
2017-02-13T05:38:04.081Z,926.8
2017-02-13T05:38:32.196Z,926.8
2017-02-13T05:39:00.342Z,926.8
2017-02-13T05:39:28.453Z,926.8
2017-02-13T05:39:56.572Z,926.82
2017-02-13T05:40:24.570Z,926.81
2017-02-13T05:40:52.845Z,926.81
2017-02-13T05:41:20.964Z,926.8
2017-02-13T05:41:48.935Z,926.83
2017-02-13T05:42:16.863Z,926.83
2017-02-13T05:42:44.995Z,926.83
2017-02-13T05:43:13.001Z,926.79
2017-02-13T05:43:41.068Z,926.79
2017-02-13T05:44:09.294Z,926.83
2017-02-13T05:44:37.318Z,926.82
2017-02-13T05:45:05.545Z,926.81
2017-02-13T05:45:33.732Z,926.78
2017-02-13T05:46:01.900Z,926.79
2017-02-13T05:46:29.810Z,926.8
2017-02-13T05:46:57.845Z,926.78
2017-02-13T05:47:25.927Z,926.8
2017-02-13T05:47:54.119Z,926.78
2017-02-13T05:48:22.328Z,926.78
2017-02-13T05:48:50.365Z,926.76
2017-02-13T05:49:18.385Z,926.79
2017-02-13T05:49:46.395Z,926.77
2017-02-13T05:50:14.424Z,926.77
2017-02-13T05:50:42.641Z,926.76
2017-02-13T05:51:11.044Z,926.78
2017-02-13T05:51:39.169Z,926.77
2017-02-13T05:52:07.404Z,926.76
2017-02-13T05:52:35.439Z,926.78
2017-02-13T05:53:03.401Z,926.8